createdAt,value
2022-11-29T00:01:21.672Z,2.43
2022-11-29T00:03:48.381Z,2.53
2022-11-29T00:06:17.910Z,2.67
2022-11-29T00:08:45.101Z,3.37
2022-11-29T00:11:14.338Z,3.10
2022-11-29T00:13:40.977Z,3.10
2022-11-29T00:16:12.177Z,3.13
2022-11-29T00:18:38.849Z,3.77
2022-11-29T00:21:09.448Z,3.40
2022-11-29T00:23:36.327Z,3.83
2022-11-29T00:26:05.337Z,3.80
2022-11-29T00:28:32.284Z,3.90
2022-11-29T00:30:58.905Z,3.70
2022-11-29T00:33:25.513Z,4.03
2022-11-29T00:35:52.114Z,3.50
2022-11-29T00:38:18.730Z,3.80
2022-11-29T00:40:51.086Z,3.60
2022-11-29T00:43:17.660Z,3.97
2022-11-29T00:45:44.294Z,3.27
2022-11-29T00:48:10.955Z,4.20
2022-11-29T00:50:37.519Z,3.80
2022-11-29T00:53:04.125Z,3.57
2022-11-29T00:55:30.718Z,3.77
2022-11-29T00:57:57.298Z,3.80
2022-11-29T01:00:23.962Z,4.10
2022-11-29T01:02:50.605Z,4.10
2022-11-29T01:05:17.277Z,3.90
2022-11-29T01:07:43.872Z,4.30
2022-11-29T01:10:10.585Z,4.67
2022-11-29T01:12:38.111Z,4.47
2022-11-29T01:15:06.533Z,4.47
2022-11-29T01:17:35.617Z,3.70
2022-11-29T01:20:02.357Z,4.07
2022-11-29T01:22:28.924Z,4.23
2022-11-29T01:24:55.506Z,3.97
2022-11-29T01:27:22.070Z,4.70
2022-11-29T01:29:48.645Z,4.30
2022-11-29T01:32:15.225Z,4.93
2022-11-29T01:34:42.341Z,4.80
2022-11-29T01:37:09.371Z,4.70
2022-11-29T01:39:36.077Z,4.27
2022-11-29T01:42:03.102Z,3.70
2022-11-29T01:44:29.705Z,4.33
2022-11-29T01:46:57.261Z,4.57
2022-11-29T01:49:32.392Z,4.73
2022-11-29T01:52:06.581Z,4.10
2022-11-29T01:54:36.450Z,4.80
2022-11-29T01:57:05.772Z,5.00
2022-11-29T01:59:33.373Z,4.60
2022-11-29T02:02:14.045Z,4.90
2022-11-29T02:04:43.528Z,4.47
2022-11-29T02:07:10.928Z,4.53
2022-11-29T02:09:37.646Z,4.87
2022-11-29T02:12:22.782Z,4.40
2022-11-29T02:15:12.654Z,4.53
2022-11-29T02:18:33.448Z,4.67
2022-11-29T02:21:08.746Z,4.50
2022-11-29T02:24:07.572Z,4.30
2022-11-29T02:26:49.196Z,4.27
2022-11-29T02:29:45.968Z,4.37
2022-11-29T02:32:34.090Z,5.30
2022-11-29T02:35:24.322Z,5.10
2022-11-29T02:38:23.851Z,4.33
2022-11-29T02:41:04.315Z,4.93
2022-11-29T02:43:39.586Z,4.27
2022-11-29T02:46:35.320Z,4.73
2022-11-29T02:49:20.328Z,4.50
2022-11-29T02:51:55.657Z,4.60
2022-11-29T02:55:01.048Z,4.87
2022-11-29T02:57:33.716Z,4.50
2022-11-29T03:00:06.741Z,5.03
2022-11-29T03:02:48.272Z,4.60
2022-11-29T03:05:42.159Z,4.53
2022-11-29T03:08:23.770Z,4.40
2022-11-29T03:11:07.284Z,4.63
2022-11-29T03:13:56.663Z,5.03
2022-11-29T03:16:42.801Z,5.40
2022-11-29T03:19:18.983Z,4.57
2022-11-29T03:22:05.788Z,4.67
2022-11-29T03:24:45.483Z,4.60
2022-11-29T03:27:41.374Z,4.80
2022-11-29T03:30:11.905Z,4.70
2022-11-29T03:33:10.097Z,4.53
2022-11-29T03:35:42.326Z,4.00
2022-11-29T03:38:15.134Z,4.47
2022-11-29T03:40:51.332Z,4.10
2022-11-29T03:43:34.413Z,4.17
2022-11-29T03:46:06.081Z,4.00
2022-11-29T03:48:50.140Z,4.33
2022-11-29T03:51:22.209Z,4.70
2022-11-29T03:54:01.962Z,4.60
2022-11-29T03:56:37.985Z,4.20
2022-11-29T03:59:29.380Z,4.40
2022-11-29T04:02:17.605Z,4.27
2022-11-29T04:04:44.438Z,4.80
2022-11-29T04:07:38.023Z,4.93
2022-11-29T04:10:38.238Z,4.57
2022-11-29T04:13:14.050Z,4.80
2022-11-29T04:15:58.398Z,4.70
2022-11-29T04:18:59.025Z,4.90
2022-11-29T04:21:59.811Z,4.13
2022-11-29T04:25:05.279Z,4.20
2022-11-29T04:27:44.877Z,4.60
2022-11-29T04:30:24.849Z,4.67
2022-11-29T04:33:25.519Z,4.30
2022-11-29T04:36:30.879Z,4.47
2022-11-29T04:39:07.931Z,4.43
2022-11-29T04:42:16.534Z,4.33
2022-11-29T04:45:10.417Z,4.27
2022-11-29T04:48:03.524Z,4.53
2022-11-29T04:50:36.006Z,4.70
2022-11-29T04:53:47.353Z,4.40
2022-11-29T04:56:16.919Z,4.80
2022-11-29T04:59:01.351Z,4.47
2022-11-29T05:01:36.823Z,5.03
2022-11-29T05:04:03.390Z,4.70
2022-11-29T05:06:42.403Z,4.33
2022-11-29T05:09:17.723Z,4.60
2022-11-29T05:12:05.334Z,4.90
2022-11-29T05:15:10.176Z,4.47
2022-11-29T05:17:55.546Z,4.90
2022-11-29T05:20:47.240Z,5.10
2022-11-29T05:23:54.983Z,4.97
2022-11-29T05:26:49.559Z,4.67
2022-11-29T05:29:40.299Z,4.67
2022-11-29T05:32:29.941Z,5.27
2022-11-29T05:35:18.659Z,5.03
2022-11-29T05:38:20.560Z,4.63
2022-11-29T05:41:38.168Z,4.80
2022-11-29T05:44:33.105Z,4.67
2022-11-29T05:47:05.866Z,5.23
2022-11-29T05:49:50.574Z,5.40
2022-11-29T05:52:24.449Z,4.63
2022-11-29T05:55:30.112Z,5.43
2022-11-29T05:58:10.668Z,5.20
2022-11-29T06:00:58.899Z,5.10
2022-11-29T06:03:41.305Z,5.10
2022-11-29T06:06:19.896Z,5.93
2022-11-29T06:08:58.506Z,5.37
2022-11-29T06:11:31.109Z,5.07
2022-11-29T06:14:12.509Z,5.60
2022-11-29T06:16:52.210Z,5.33
2022-11-29T06:19:31.976Z,5.50
2022-11-29T06:22:01.391Z,4.97
2022-11-29T06:24:56.742Z,5.67
2022-11-29T06:27:59.127Z,5.40
2022-11-29T06:30:56.687Z,5.40
2022-11-29T06:33:29.661Z,5.43
2022-11-29T06:36:25.895Z,5.53
2022-11-29T06:38:52.673Z,5.50
2022-11-29T06:41:24.069Z,5.60
2022-11-29T06:43:51.247Z,5.43
2022-11-29T06:46:46.267Z,5.23
2022-11-29T06:49:25.422Z,5.07
2022-11-29T06:52:09.588Z,5.40
2022-11-29T06:55:01.441Z,5.00
2022-11-29T06:58:14.546Z,5.07
2022-11-29T07:00:48.923Z,4.97
2022-11-29T07:03:44.760Z,5.00
2022-11-29T07:06:22.699Z,4.43
2022-11-29T07:08:59.043Z,4.67
2022-11-29T07:11:26.070Z,4.53
2022-11-29T07:13:52.953Z,4.27
2022-11-29T07:16:34.557Z,4.20
2022-11-29T07:19:25.678Z,4.40
2022-11-29T07:22:36.733Z,4.30
2022-11-29T07:25:16.883Z,4.37
2022-11-29T07:27:54.145Z,4.60
2022-11-29T07:30:24.741Z,4.90
2022-11-29T07:33:28.664Z,4.53
2022-11-29T07:36:22.324Z,4.70
2022-11-29T07:39:07.654Z,4.47
2022-11-29T07:41:46.151Z,4.73
2022-11-29T07:44:27.649Z,5.27
2022-11-29T07:46:54.380Z,4.97
2022-11-29T07:49:21.057Z,4.37
2022-11-29T07:51:47.781Z,5.13
2022-11-29T07:54:18.678Z,4.90
2022-11-29T07:56:45.322Z,5.07
2022-11-29T07:59:13.037Z,5.20
2022-11-29T08:01:40.236Z,4.40
2022-11-29T08:04:08.026Z,4.73
2022-11-29T08:06:35.996Z,5.30
2022-11-29T08:09:03.239Z,4.93
2022-11-29T08:11:29.858Z,4.70
2022-11-29T08:13:58.268Z,4.60
2022-11-29T08:16:24.967Z,5.07
2022-11-29T08:18:54.025Z,4.47
2022-11-29T08:21:20.970Z,4.83
2022-11-29T08:23:49.487Z,4.60
2022-11-29T08:26:17.353Z,4.40
2022-11-29T08:28:44.733Z,4.90
2022-11-29T08:31:13.071Z,4.93
2022-11-29T08:33:41.761Z,4.03
2022-11-29T08:36:11.865Z,4.20
2022-11-29T08:38:38.533Z,4.43
2022-11-29T08:41:07.475Z,4.70
2022-11-29T08:43:34.616Z,5.27
2022-11-29T08:46:01.513Z,4.53
2022-11-29T08:48:28.525Z,4.77
2022-11-29T08:50:56.437Z,5.73
2022-11-29T08:53:42.193Z,5.10
2022-11-29T08:59:05.915Z,4.77
2022-11-29T09:01:32.951Z,5.17
2022-11-29T09:03:59.640Z,4.87
2022-11-29T09:06:28.529Z,4.97
2022-11-29T09:08:56.540Z,4.57
2022-11-29T09:11:24.494Z,4.87
2022-11-29T09:13:54.337Z,4.53
2022-11-29T09:16:25.401Z,4.23
2022-11-29T09:18:52.814Z,4.27
2022-11-29T09:21:19.406Z,4.93
2022-11-29T09:23:46.072Z,4.20
2022-11-29T09:26:18.514Z,4.43
2022-11-29T09:28:45.765Z,4.53
2022-11-29T09:31:15.123Z,4.70
2022-11-29T09:33:42.470Z,4.53
2022-11-29T09:36:11.420Z,4.87
2022-11-29T09:38:38.664Z,4.70
2022-11-29T09:41:46.985Z,4.73
2022-11-29T09:44:50.070Z,4.27
2022-11-29T09:47:19.538Z,4.30
2022-11-29T09:50:16.805Z,4.57
2022-11-29T09:53:17.482Z,4.90
2022-11-29T09:56:16.544Z,4.40
2022-11-29T09:58:49.573Z,4.53
2022-11-29T10:01:30.136Z,4.67
2022-11-29T10:04:09.522Z,4.77
2022-11-29T10:06:45.742Z,4.70
2022-11-29T10:09:33.727Z,4.80
2022-11-29T10:12:37.089Z,4.47
2022-11-29T10:15:21.954Z,5.03
2022-11-29T10:17:54.743Z,5.27
2022-11-29T10:20:37.869Z,4.93
2022-11-29T10:23:19.569Z,4.40
2022-11-29T10:25:49.314Z,5.20
2022-11-29T10:28:21.485Z,4.50
2022-11-29T10:30:49.287Z,4.30
2022-11-29T10:33:25.509Z,4.30
2022-11-29T10:35:57.455Z,4.07
2022-11-29T10:38:32.354Z,4.50
2022-11-29T10:41:06.459Z,4.00
2022-11-29T10:43:33.199Z,4.00
2022-11-29T10:46:00.355Z,3.27
2022-11-29T10:48:32.109Z,3.63
2022-11-29T10:50:59.677Z,3.80
2022-11-29T10:53:31.012Z,3.33
2022-11-29T10:56:19.341Z,3.50
2022-11-29T10:59:06.160Z,3.50
2022-11-29T11:01:38.984Z,3.20
2022-11-29T11:04:09.944Z,2.80
2022-11-29T11:06:46.834Z,3.40
2022-11-29T11:09:34.198Z,3.40
2022-11-29T11:12:06.902Z,3.33
2022-11-29T11:14:37.648Z,2.53
2022-11-29T11:17:36.488Z,3.03
2022-11-29T11:20:27.926Z,3.17
2022-11-29T11:22:59.782Z,2.93
2022-11-29T11:25:39.189Z,2.97
2022-11-29T11:28:21.305Z,3.17
2022-11-29T11:30:50.884Z,3.20
2022-11-29T11:33:21.689Z,3.17
2022-11-29T11:36:22.236Z,3.27
2022-11-29T11:38:58.096Z,3.23
2022-11-29T11:41:48.229Z,3.00
2022-11-29T11:44:52.309Z,3.00
2022-11-29T11:47:24.285Z,2.50
2022-11-29T11:50:08.237Z,2.80
2022-11-29T11:52:48.862Z,2.90
2022-11-29T11:55:23.291Z,2.53
2022-11-29T11:58:09.692Z,2.60
2022-11-29T12:01:07.852Z,2.40
2022-11-29T12:03:56.690Z,2.90
2022-11-29T12:06:25.941Z,2.77
2022-11-29T12:09:06.818Z,2.83
2022-11-29T12:11:50.865Z,2.40
2022-11-29T12:14:28.479Z,2.63
2022-11-29T12:17:05.265Z,2.27
2022-11-29T12:19:38.393Z,2.20
2022-11-29T12:22:14.201Z,2.10
2022-11-29T12:24:50.545Z,2.70
2022-11-29T12:27:17.196Z,2.07
2022-11-29T12:29:43.853Z,2.17
2022-11-29T12:33:06.110Z,2.23
2022-11-29T12:36:06.743Z,2.37
2022-11-29T12:39:06.675Z,2.27
2022-11-29T12:41:54.170Z,2.17
2022-11-29T12:44:20.935Z,2.30
2022-11-29T12:47:34.619Z,2.67
2022-11-29T12:50:11.206Z,2.53
2022-11-29T12:53:06.356Z,2.63
2022-11-29T12:55:49.015Z,2.67
2022-11-29T12:58:15.528Z,2.30
2022-11-29T13:01:02.331Z,2.40
2022-11-29T13:03:50.330Z,2.10
2022-11-29T13:06:33.129Z,2.40
2022-11-29T13:09:36.883Z,1.80
2022-11-29T13:12:13.196Z,2.20
2022-11-29T13:15:04.323Z,2.00
2022-11-29T13:17:39.295Z,2.37
2022-11-29T13:20:36.928Z,2.30
2022-11-29T13:23:45.836Z,2.10
2022-11-29T13:26:13.532Z,2.13
2022-11-29T13:28:42.893Z,2.67
2022-11-29T13:31:15.541Z,2.07
2022-11-29T13:34:07.529Z,2.00
2022-11-29T13:37:12.917Z,2.13
2022-11-29T13:40:07.501Z,2.37
2022-11-29T13:42:45.109Z,2.30
2022-11-29T13:45:47.548Z,2.27
2022-11-29T13:48:27.872Z,2.00
2022-11-29T13:50:56.730Z,2.17
2022-11-29T13:53:25.698Z,2.30
2022-11-29T13:56:01.867Z,2.27
2022-11-29T13:58:28.459Z,2.30
2022-11-29T14:01:01.825Z,2.00
2022-11-29T14:03:32.457Z,2.00
2022-11-29T14:06:01.776Z,2.13
2022-11-29T14:09:17.885Z,2.33
2022-11-29T14:11:53.272Z,2.03
2022-11-29T14:14:35.517Z,2.30
2022-11-29T14:17:05.105Z,2.10
2022-11-29T14:19:34.397Z,2.17
2022-11-29T14:22:07.015Z,2.30
2022-11-29T14:24:36.760Z,2.17
2022-11-29T14:27:06.123Z,2.50
2022-11-29T14:29:47.837Z,2.43
2022-11-29T14:32:53.070Z,2.47
2022-11-29T14:35:43.657Z,2.17
2022-11-29T14:38:43.445Z,2.80
2022-11-29T14:41:51.257Z,2.50
2022-11-29T14:44:20.315Z,2.30
2022-11-29T14:46:48.745Z,2.23
2022-11-29T14:49:23.698Z,2.10
2022-11-29T14:52:12.926Z,2.17
2022-11-29T14:55:28.502Z,2.30
2022-11-29T14:57:57.796Z,2.30
2022-11-29T15:00:46.828Z,2.40
2022-11-29T15:03:33.036Z,3.03
2022-11-29T15:06:08.580Z,2.17
2022-11-29T15:08:55.828Z,2.10
2022-11-29T15:11:34.508Z,2.20
2022-11-29T15:14:07.461Z,2.30
2022-11-29T15:16:56.357Z,2.10
2022-11-29T15:19:31.746Z,2.20
2022-11-29T15:22:21.090Z,2.60
2022-11-29T15:24:55.987Z,2.10
2022-11-29T15:27:23.749Z,2.27
2022-11-29T15:29:50.554Z,2.33
2022-11-29T15:32:23.507Z,1.90
2022-11-29T15:34:53.305Z,2.10
2022-11-29T15:37:31.784Z,2.37
2022-11-29T15:40:03.577Z,1.97
2022-11-29T15:42:42.615Z,2.00
2022-11-29T15:45:24.452Z,2.17
2022-11-29T15:47:51.190Z,2.23
2022-11-29T15:50:28.657Z,1.73
2022-11-29T15:53:00.031Z,2.20
2022-11-29T15:55:28.041Z,1.80
2022-11-29T15:57:57.649Z,2.23
2022-11-29T16:00:25.731Z,2.33
2022-11-29T16:02:57.850Z,2.23
2022-11-29T16:05:32.808Z,2.27
2022-11-29T16:08:17.085Z,2.03
2022-11-29T16:10:53.358Z,2.00
2022-11-29T16:13:33.359Z,2.00
2022-11-29T16:16:20.169Z,2.40
2022-11-29T16:18:48.310Z,2.57
2022-11-29T16:21:26.209Z,2.07
2022-11-29T16:23:53.893Z,2.20
2022-11-29T16:26:43.253Z,2.40
2022-11-29T16:29:24.565Z,2.83
2022-11-29T16:31:52.140Z,2.60
2022-11-29T16:34:21.416Z,2.50
2022-11-29T16:37:01.049Z,2.30
2022-11-29T16:39:28.437Z,2.50
2022-11-29T16:42:16.572Z,3.00
2022-11-29T16:44:45.250Z,2.70
2022-11-29T16:47:20.199Z,2.40
2022-11-29T16:50:09.673Z,2.73
2022-11-29T16:52:36.283Z,2.40
2022-11-29T16:55:02.856Z,2.23
2022-11-29T16:57:30.346Z,2.67
2022-11-29T16:59:57.106Z,2.50
2022-11-29T17:02:24.006Z,2.53
2022-11-29T17:04:51.278Z,3.03
2022-11-29T17:07:26.788Z,2.43
2022-11-29T17:09:55.727Z,2.70
2022-11-29T17:12:27.670Z,3.17
2022-11-29T17:14:56.321Z,3.03
2022-11-29T17:17:23.260Z,2.50
2022-11-29T17:19:50.027Z,2.97
2022-11-29T17:22:16.633Z,2.67
2022-11-29T17:24:48.541Z,2.90
2022-11-29T17:27:15.364Z,3.00
2022-11-29T17:29:44.479Z,3.33
2022-11-29T17:32:11.092Z,3.33
2022-11-29T17:34:37.716Z,3.23
2022-11-29T17:37:04.462Z,3.07
2022-11-29T17:39:33.251Z,2.77
2022-11-29T17:41:59.854Z,3.63
2022-11-29T17:44:26.601Z,3.20
2022-11-29T17:46:54.301Z,3.00
2022-11-29T17:49:20.890Z,2.43
2022-11-29T17:51:52.752Z,3.40
2022-11-29T17:54:21.005Z,2.97
2022-11-29T17:56:47.682Z,3.53
2022-11-29T17:59:14.235Z,3.03
2022-11-29T18:01:40.916Z,3.27
2022-11-29T18:04:08.449Z,3.37
2022-11-29T18:06:37.833Z,3.40
2022-11-29T18:09:10.627Z,2.90
2022-11-29T18:11:48.049Z,3.17
2022-11-29T18:14:18.927Z,3.07
2022-11-29T18:16:45.845Z,3.20
2022-11-29T18:19:15.180Z,2.97
2022-11-29T18:21:44.890Z,3.30
2022-11-29T18:24:11.776Z,3.20
2022-11-29T18:26:41.732Z,3.27
2022-11-29T18:29:08.854Z,3.37
2022-11-29T18:31:38.174Z,3.93
2022-11-29T18:34:07.246Z,3.47
2022-11-29T18:36:36.459Z,3.07
2022-11-29T18:39:15.440Z,2.90
2022-11-29T18:41:50.332Z,3.10
2022-11-29T18:44:19.915Z,2.40
2022-11-29T18:46:47.341Z,3.10
2022-11-29T18:49:16.039Z,2.70
2022-11-29T18:51:45.003Z,2.80
2022-11-29T18:54:12.930Z,2.60
2022-11-29T18:56:40.392Z,2.70
2022-11-29T18:59:17.517Z,2.47
2022-11-29T19:01:46.583Z,2.50
2022-11-29T19:04:16.307Z,2.50
2022-11-29T19:06:44.007Z,2.73
2022-11-29T19:09:21.278Z,2.20
2022-11-29T19:11:51.361Z,2.57
2022-11-29T19:14:18.250Z,2.40
2022-11-29T19:16:47.003Z,2.33
2022-11-29T19:19:13.696Z,2.77
2022-11-29T19:21:41.430Z,2.00
2022-11-29T19:24:14.239Z,1.90
2022-11-29T19:26:44.507Z,1.80
2022-11-29T19:29:12.118Z,2.20
2022-11-29T19:31:39.478Z,1.83
2022-11-29T19:34:09.962Z,1.87
2022-11-29T19:36:43.070Z,1.70
2022-11-29T19:39:17.987Z,1.77
2022-11-29T19:41:47.017Z,2.00
2022-11-29T19:44:13.957Z,2.40
2022-11-29T19:46:46.024Z,2.33
2022-11-29T19:49:13.047Z,2.00
2022-11-29T19:51:40.032Z,2.00
2022-11-29T19:54:09.185Z,2.50
2022-11-29T19:56:36.472Z,2.27
2022-11-29T19:59:03.478Z,2.33
2022-11-29T20:01:40.253Z,2.27
2022-11-29T20:04:08.849Z,2.60
2022-11-29T20:06:35.602Z,2.40
2022-11-29T20:09:02.499Z,2.27
2022-11-29T20:11:29.264Z,2.70
2022-11-29T20:14:03.587Z,2.53
2022-11-29T20:16:31.552Z,2.30
2022-11-29T20:18:59.165Z,2.33
2022-11-29T20:21:28.737Z,2.77
2022-11-29T20:24:07.143Z,2.33
2022-11-29T20:26:36.683Z,2.73
2022-11-29T20:29:05.233Z,2.77
2022-11-29T20:31:33.316Z,3.50
2022-11-29T20:34:00.541Z,2.60
2022-11-29T20:37:07.397Z,3.10
2022-11-29T20:40:04.019Z,2.90
2022-11-29T20:42:52.563Z,3.20
2022-11-29T20:45:19.515Z,3.30
2022-11-29T20:48:04.594Z,3.53
2022-11-29T20:50:32.320Z,3.70
2022-11-29T20:53:10.831Z,3.97
2022-11-29T20:55:42.532Z,3.57
2022-11-29T20:58:13.038Z,3.97
2022-11-29T21:00:39.868Z,4.37
2022-11-29T21:03:06.448Z,4.23
2022-11-29T21:05:33.034Z,4.20
2022-11-29T21:07:59.661Z,4.70
2022-11-29T21:10:26.342Z,4.87
2022-11-29T21:12:53.345Z,5.43
2022-11-29T21:15:20.312Z,5.23
2022-11-29T21:17:47.202Z,5.33
2022-11-29T21:20:19.445Z,5.23
2022-11-29T21:23:03.975Z,5.23
2022-11-29T21:25:42.767Z,5.90
2022-11-29T21:28:12.844Z,5.97
2022-11-29T21:30:44.417Z,5.33
2022-11-29T21:33:11.924Z,6.17
2022-11-29T21:35:44.087Z,6.37
2022-11-29T21:38:17.922Z,6.10
2022-11-29T21:40:44.524Z,5.43
2022-11-29T21:43:11.125Z,5.67
2022-11-29T21:45:37.895Z,5.70
2022-11-29T21:48:26.905Z,5.40
2022-11-29T21:50:53.634Z,5.10
2022-11-29T21:53:20.222Z,5.07
2022-11-29T21:55:46.791Z,5.60
2022-11-29T21:58:13.405Z,5.00
2022-11-29T22:00:39.975Z,5.10
2022-11-29T22:03:06.582Z,4.73
2022-11-29T22:05:33.193Z,5.20
2022-11-29T22:07:59.791Z,5.23
2022-11-29T22:10:31.061Z,5.37
2022-11-29T22:12:58.255Z,5.13
2022-11-29T22:15:25.340Z,5.40
2022-11-29T22:17:52.213Z,5.57
2022-11-29T22:20:19.201Z,5.63
2022-11-29T22:22:47.713Z,5.63
2022-11-29T22:25:15.405Z,5.40
2022-11-29T22:27:44.852Z,5.20
2022-11-29T22:30:11.914Z,4.93
2022-11-29T22:32:38.481Z,4.57
2022-11-29T22:35:05.384Z,5.40
2022-11-29T22:37:31.960Z,5.13
2022-11-29T22:39:58.534Z,5.00
2022-11-29T22:42:25.232Z,4.93
2022-11-29T22:44:51.879Z,4.43
2022-11-29T22:47:18.448Z,5.33
2022-11-29T22:49:45.025Z,5.40
2022-11-29T22:52:11.590Z,5.63
2022-11-29T22:54:38.161Z,5.40
2022-11-29T22:57:04.777Z,5.07
2022-11-29T22:59:33.102Z,4.93
2022-11-29T23:01:59.715Z,5.70
2022-11-29T23:04:26.322Z,5.13
2022-11-29T23:06:52.903Z,5.60
2022-11-29T23:09:22.459Z,5.17
2022-11-29T23:11:54.538Z,4.87
2022-11-29T23:14:22.508Z,4.97
2022-11-29T23:16:49.525Z,5.10
2022-11-29T23:19:17.298Z,4.70
2022-11-29T23:21:45.860Z,4.87
2022-11-29T23:24:13.986Z,4.13
2022-11-29T23:26:43.611Z,5.03
2022-11-29T23:29:13.783Z,4.27
2022-11-29T23:31:41.196Z,4.50
2022-11-29T23:34:08.535Z,4.20
2022-11-29T23:36:35.225Z,4.03
2022-11-29T23:39:01.796Z,4.33
2022-11-29T23:41:28.589Z,4.70
2022-11-29T23:43:55.209Z,3.90
2022-11-29T23:46:23.957Z,4.20
2022-11-29T23:48:50.791Z,3.53
2022-11-29T23:51:18.731Z,3.30
2022-11-29T23:53:46.674Z,3.77
2022-11-29T23:56:15.670Z,3.60
2022-11-29T23:58:43.637Z,3.43
